sensor_id;sensor_type;location;lat;lon;timestamp;P1;durP1;ratioP1;P2;durP2;ratioP2
3523;SDS011;1776;53.330;11.498;2023-03-24T00:01:44;5.67;;;2.67;;
3523;SDS011;1776;53.330;11.498;2023-03-24T00:04:09;6.53;;;2.70;;
3523;SDS011;1776;53.330;11.498;2023-03-24T00:06:34;3.13;;;2.47;;
3523;SDS011;1776;53.330;11.498;2023-03-24T00:09:00;6.07;;;2.40;;
3523;SDS011;1776;53.330;11.498;2023-03-24T00:11:30;3.40;;;2.40;;
3523;SDS011;1776;53.330;11.498;2023-03-24T00:13:59;4.60;;;2.90;;
3523;SDS011;1776;53.330;11.498;2023-03-24T00:16:25;5.67;;;2.50;;
3523;SDS011;1776;53.330;11.498;2023-03-24T00:18:50;7.70;;;2.23;;
3523;SDS011;1776;53.330;11.498;2023-03-24T00:21:19;2.63;;;2.03;;
3523;SDS011;1776;53.330;11.498;2023-03-24T00:23:47;4.77;;;2.03;;
3523;SDS011;1776;53.330;11.498;2023-03-24T00:26:13;6.03;;;2.50;;
3523;SDS011;1776;53.330;11.498;2023-03-24T00:28:40;4.00;;;2.20;;
3523;SDS011;1776;53.330;11.498;2023-03-24T00:31:10;5.07;;;2.67;;
3523;SDS011;1776;53.330;11.498;2023-03-24T00:33:39;6.40;;;2.30;;
3523;SDS011;1776;53.330;11.498;2023-03-24T00:36:07;4.53;;;2.10;;
3523;SDS011;1776;53.330;11.498;2023-03-24T00:38:37;5.10;;;2.40;;
3523;SDS011;1776;53.330;11.498;2023-03-24T00:41:04;2.80;;;2.03;;
3523;SDS011;1776;53.330;11.498;2023-03-24T00:43:31;5.20;;;2.23;;
3523;SDS011;1776;53.330;11.498;2023-03-24T00:45:58;3.70;;;2.43;;
3523;SDS011;1776;53.330;11.498;2023-03-24T00:48:26;6.37;;;2.77;;
3523;SDS011;1776;53.330;11.498;2023-03-24T00:50:52;2.83;;;2.50;;
3523;SDS011;1776;53.330;11.498;2023-03-24T00:53:17;3.30;;;2.20;;
3523;SDS011;1776;53.330;11.498;2023-03-24T00:55:44;3.03;;;2.37;;
3523;SDS011;1776;53.330;11.498;2023-03-24T00:58:12;3.73;;;2.20;;
3523;SDS011;1776;53.330;11.498;2023-03-24T01:00:42;4.60;;;2.77;;
3523;SDS011;1776;53.330;11.498;2023-03-24T01:03:11;6.27;;;2.77;;
3523;SDS011;1776;53.330;11.498;2023-03-24T01:05:36;3.50;;;2.67;;
3523;SDS011;1776;53.330;11.498;2023-03-24T01:08:02;6.27;;;3.10;;
3523;SDS011;1776;53.330;11.498;2023-03-24T01:10:29;2.50;;;2.07;;
3523;SDS011;1776;53.330;11.498;2023-03-24T01:12:58;5.30;;;2.43;;
3523;SDS011;1776;53.330;11.498;2023-03-24T01:15:26;3.30;;;2.43;;
3523;SDS011;1776;53.330;11.498;2023-03-24T01:17:54;4.70;;;2.50;;
3523;SDS011;1776;53.330;11.498;2023-03-24T01:20:20;5.03;;;2.70;;
3523;SDS011;1776;53.330;11.498;2023-03-24T01:22:47;4.10;;;2.60;;
3523;SDS011;1776;53.330;11.498;2023-03-24T01:25:14;3.63;;;2.50;;
3523;SDS011;1776;53.330;11.498;2023-03-24T01:27:47;2.50;;;2.00;;
3523;SDS011;1776;53.330;11.498;2023-03-24T01:30:15;3.50;;;2.20;;
3523;SDS011;1776;53.330;11.498;2023-03-24T01:32:42;3.87;;;2.70;;
3523;SDS011;1776;53.330;11.498;2023-03-24T01:35:08;5.03;;;2.77;;
3523;SDS011;1776;53.330;11.498;2023-03-24T01:37:34;5.10;;;2.37;;
3523;SDS011;1776;53.330;11.498;2023-03-24T01:39:59;3.77;;;1.93;;
3523;SDS011;1776;53.330;11.498;2023-03-24T01:42:25;5.50;;;3.00;;
3523;SDS011;1776;53.330;11.498;2023-03-24T01:44:55;4.80;;;2.47;;
3523;SDS011;1776;53.330;11.498;2023-03-24T01:47:24;3.90;;;2.10;;
3523;SDS011;1776;53.330;11.498;2023-03-24T01:49:51;5.50;;;2.20;;
3523;SDS011;1776;53.330;11.498;2023-03-24T01:52:39;6.80;;;2.50;;
3523;SDS011;1776;53.330;11.498;2023-03-24T01:55:06;4.37;;;2.80;;
3523;SDS011;1776;53.330;11.498;2023-03-24T01:57:39;3.50;;;2.57;;
3523;SDS011;1776;53.330;11.498;2023-03-24T02:00:11;3.30;;;2.07;;
3523;SDS011;1776;53.330;11.498;2023-03-24T02:02:41;5.30;;;2.33;;
3523;SDS011;1776;53.330;11.498;2023-03-24T02:05:13;6.10;;;2.40;;
3523;SDS011;1776;53.330;11.498;2023-03-24T02:07:47;6.10;;;2.53;;
3523;SDS011;1776;53.330;11.498;2023-03-24T02:10:17;4.70;;;3.10;;
3523;SDS011;1776;53.330;11.498;2023-03-24T02:12:44;4.17;;;2.43;;
3523;SDS011;1776;53.330;11.498;2023-03-24T02:15:11;6.23;;;2.40;;
3523;SDS011;1776;53.330;11.498;2023-03-24T02:17:57;3.10;;;2.50;;
3523;SDS011;1776;53.330;11.498;2023-03-24T02:28:55;5.20;;;3.40;;
3523;SDS011;1776;53.330;11.498;2023-03-24T02:31:41;3.07;;;2.23;;
3523;SDS011;1776;53.330;11.498;2023-03-24T02:34:36;3.37;;;2.13;;
3523;SDS011;1776;53.330;11.498;2023-03-24T02:42:57;4.63;;;2.30;;
3523;SDS011;1776;53.330;11.498;2023-03-24T02:45:59;3.07;;;2.70;;
3523;SDS011;1776;53.330;11.498;2023-03-24T02:48:53;2.30;;;2.10;;
3523;SDS011;1776;53.330;11.498;2023-03-24T02:54:17;7.47;;;3.57;;
3523;SDS011;1776;53.330;11.498;2023-03-24T02:59:20;4.67;;;3.70;;
3523;SDS011;1776;53.330;11.498;2023-03-24T03:02:00;3.80;;;2.40;;
3523;SDS011;1776;53.330;11.498;2023-03-24T03:04:35;9.83;;;3.27;;
3523;SDS011;1776;53.330;11.498;2023-03-24T03:07:05;3.47;;;2.80;;
3523;SDS011;1776;53.330;11.498;2023-03-24T03:09:37;7.47;;;3.10;;
3523;SDS011;1776;53.330;11.498;2023-03-24T03:12:07;4.47;;;3.13;;
3523;SDS011;1776;53.330;11.498;2023-03-24T03:14:37;6.90;;;2.40;;
3523;SDS011;1776;53.330;11.498;2023-03-24T03:17:11;5.63;;;3.30;;
3523;SDS011;1776;53.330;11.498;2023-03-24T03:20:15;3.80;;;2.80;;
3523;SDS011;1776;53.330;11.498;2023-03-24T03:22:49;5.03;;;3.20;;
3523;SDS011;1776;53.330;11.498;2023-03-24T03:25:21;3.03;;;2.73;;
3523;SDS011;1776;53.330;11.498;2023-03-24T03:27:52;4.17;;;3.10;;
3523;SDS011;1776;53.330;11.498;2023-03-24T03:30:22;7.63;;;3.73;;
3523;SDS011;1776;53.330;11.498;2023-03-24T03:32:58;8.37;;;4.10;;
3523;SDS011;1776;53.330;11.498;2023-03-24T03:35:41;5.13;;;3.20;;
3523;SDS011;1776;53.330;11.498;2023-03-24T03:38:14;5.03;;;3.23;;
3523;SDS011;1776;53.330;11.498;2023-03-24T03:40:49;4.90;;;3.80;;
3523;SDS011;1776;53.330;11.498;2023-03-24T03:43:16;4.93;;;3.47;;
3523;SDS011;1776;53.330;11.498;2023-03-24T03:45:42;4.60;;;3.77;;
3523;SDS011;1776;53.330;11.498;2023-03-24T03:48:08;4.23;;;3.83;;
3523;SDS011;1776;53.330;11.498;2023-03-24T03:50:34;7.23;;;3.30;;
3523;SDS011;1776;53.330;11.498;2023-03-24T03:53:01;5.20;;;4.57;;
3523;SDS011;1776;53.330;11.498;2023-03-24T03:55:26;5.57;;;3.70;;
3523;SDS011;1776;53.330;11.498;2023-03-24T03:57:52;9.27;;;4.80;;
3523;SDS011;1776;53.330;11.498;2023-03-24T04:00:18;5.77;;;4.03;;
3523;SDS011;1776;53.330;11.498;2023-03-24T04:05:31;8.53;;;4.20;;
3523;SDS011;1776;53.330;11.498;2023-03-24T04:13:47;5.20;;;3.80;;
3523;SDS011;1776;53.330;11.498;2023-03-24T04:16:32;8.90;;;4.63;;
3523;SDS011;1776;53.330;11.498;2023-03-24T04:19:19;10.57;;;5.03;;
3523;SDS011;1776;53.330;11.498;2023-03-24T04:27:23;7.80;;;4.23;;
3523;SDS011;1776;53.330;11.498;2023-03-24T04:32:43;5.50;;;4.00;;
3523;SDS011;1776;53.330;11.498;2023-03-24T04:35:35;5.20;;;4.43;;
3523;SDS011;1776;53.330;11.498;2023-03-24T04:38:06;6.87;;;4.90;;
3523;SDS011;1776;53.330;11.498;2023-03-24T04:40:35;5.00;;;3.63;;
3523;SDS011;1776;53.330;11.498;2023-03-24T04:43:06;4.93;;;3.50;;
3523;SDS011;1776;53.330;11.498;2023-03-24T04:45:34;6.03;;;4.90;;
3523;SDS011;1776;53.330;11.498;2023-03-24T04:48:01;7.97;;;3.97;;
3523;SDS011;1776;53.330;11.498;2023-03-24T04:50:29;5.77;;;3.80;;
3523;SDS011;1776;53.330;11.498;2023-03-24T04:53:00;6.27;;;4.43;;
3523;SDS011;1776;53.330;11.498;2023-03-24T04:58:13;5.30;;;3.43;;
3523;SDS011;1776;53.330;11.498;2023-03-24T05:00:38;6.90;;;4.53;;
3523;SDS011;1776;53.330;11.498;2023-03-24T05:03:03;3.90;;;3.50;;
3523;SDS011;1776;53.330;11.498;2023-03-24T05:05:28;5.10;;;4.07;;
3523;SDS011;1776;53.330;11.498;2023-03-24T05:07:54;4.97;;;4.40;;
3523;SDS011;1776;53.330;11.498;2023-03-24T05:10:20;7.23;;;3.90;;
3523;SDS011;1776;53.330;11.498;2023-03-24T05:12:46;7.77;;;3.47;;
3523;SDS011;1776;53.330;11.498;2023-03-24T05:15:11;5.37;;;3.60;;
3523;SDS011;1776;53.330;11.498;2023-03-24T05:17:37;6.13;;;3.80;;
3523;SDS011;1776;53.330;11.498;2023-03-24T05:20:02;6.10;;;3.90;;
3523;SDS011;1776;53.330;11.498;2023-03-24T05:22:32;4.47;;;3.73;;
3523;SDS011;1776;53.330;11.498;2023-03-24T05:24:57;4.40;;;4.00;;
3523;SDS011;1776;53.330;11.498;2023-03-24T05:27:22;4.77;;;3.77;;
3523;SDS011;1776;53.330;11.498;2023-03-24T05:29:48;6.70;;;3.97;;
3523;SDS011;1776;53.330;11.498;2023-03-24T05:32:13;4.67;;;3.30;;
3523;SDS011;1776;53.330;11.498;2023-03-24T05:34:39;8.17;;;4.00;;
3523;SDS011;1776;53.330;11.498;2023-03-24T05:37:04;4.20;;;3.80;;
3523;SDS011;1776;53.330;11.498;2023-03-24T05:39:30;7.20;;;3.57;;
3523;SDS011;1776;53.330;11.498;2023-03-24T05:41:55;3.80;;;3.50;;
3523;SDS011;1776;53.330;11.498;2023-03-24T05:44:21;4.47;;;4.03;;
3523;SDS011;1776;53.330;11.498;2023-03-24T05:46:46;4.70;;;4.30;;
3523;SDS011;1776;53.330;11.498;2023-03-24T05:49:11;5.27;;;3.97;;
3523;SDS011;1776;53.330;11.498;2023-03-24T05:51:39;5.60;;;5.10;;
3523;SDS011;1776;53.330;11.498;2023-03-24T05:54:04;4.03;;;3.50;;
3523;SDS011;1776;53.330;11.498;2023-03-24T05:56:30;4.93;;;4.43;;
3523;SDS011;1776;53.330;11.498;2023-03-24T05:58:56;4.37;;;3.80;;
3523;SDS011;1776;53.330;11.498;2023-03-24T06:01:21;5.33;;;3.93;;
3523;SDS011;1776;53.330;11.498;2023-03-24T06:03:47;6.77;;;4.07;;
3523;SDS011;1776;53.330;11.498;2023-03-24T06:06:12;5.40;;;3.93;;
3523;SDS011;1776;53.330;11.498;2023-03-24T06:08:39;6.80;;;3.60;;
3523;SDS011;1776;53.330;11.498;2023-03-24T06:11:05;8.83;;;4.07;;
3523;SDS011;1776;53.330;11.498;2023-03-24T06:13:30;4.53;;;3.90;;
3523;SDS011;1776;53.330;11.498;2023-03-24T06:15:56;5.43;;;3.97;;
3523;SDS011;1776;53.330;11.498;2023-03-24T06:18:23;5.60;;;3.73;;
3523;SDS011;1776;53.330;11.498;2023-03-24T06:20:50;4.93;;;4.43;;
3523;SDS011;1776;53.330;11.498;2023-03-24T06:23:20;3.47;;;3.13;;
3523;SDS011;1776;53.330;11.498;2023-03-24T06:25:47;5.03;;;4.10;;
3523;SDS011;1776;53.330;11.498;2023-03-24T06:28:14;7.33;;;3.27;;
3523;SDS011;1776;53.330;11.498;2023-03-24T06:30:42;4.97;;;3.73;;
3523;SDS011;1776;53.330;11.498;2023-03-24T06:33:08;4.70;;;3.23;;
3523;SDS011;1776;53.330;11.498;2023-03-24T06:35:35;6.87;;;4.40;;
3523;SDS011;1776;53.330;11.498;2023-03-24T06:38:00;5.50;;;3.90;;
3523;SDS011;1776;53.330;11.498;2023-03-24T06:40:26;5.97;;;4.53;;
3523;SDS011;1776;53.330;11.498;2023-03-24T06:42:51;6.30;;;3.57;;
3523;SDS011;1776;53.330;11.498;2023-03-24T06:45:16;6.93;;;3.30;;
3523;SDS011;1776;53.330;11.498;2023-03-24T06:47:42;5.80;;;4.30;;
3523;SDS011;1776;53.330;11.498;2023-03-24T06:50:07;4.60;;;3.33;;
3523;SDS011;1776;53.330;11.498;2023-03-24T06:52:33;8.03;;;3.60;;
3523;SDS011;1776;53.330;11.498;2023-03-24T06:54:59;4.10;;;3.00;;
3523;SDS011;1776;53.330;11.498;2023-03-24T06:57:24;4.87;;;4.03;;
3523;SDS011;1776;53.330;11.498;2023-03-24T06:59:51;6.83;;;3.27;;
3523;SDS011;1776;53.330;11.498;2023-03-24T07:02:17;4.17;;;3.77;;
3523;SDS011;1776;53.330;11.498;2023-03-24T07:04:42;4.60;;;3.60;;
3523;SDS011;1776;53.330;11.498;2023-03-24T07:07:07;5.70;;;3.97;;
3523;SDS011;1776;53.330;11.498;2023-03-24T07:09:34;4.53;;;3.37;;
3523;SDS011;1776;53.330;11.498;2023-03-24T07:12:00;4.70;;;3.50;;
3523;SDS011;1776;53.330;11.498;2023-03-24T07:14:27;5.13;;;3.47;;
3523;SDS011;1776;53.330;11.498;2023-03-24T07:16:52;3.70;;;3.03;;
3523;SDS011;1776;53.330;11.498;2023-03-24T07:19:18;3.87;;;3.13;;
3523;SDS011;1776;53.330;11.498;2023-03-24T07:21:43;5.13;;;2.83;;
3523;SDS011;1776;53.330;11.498;2023-03-24T07:24:10;4.37;;;2.90;;
3523;SDS011;1776;53.330;11.498;2023-03-24T07:26:36;3.53;;;3.13;;
3523;SDS011;1776;53.330;11.498;2023-03-24T07:29:01;3.43;;;3.03;;
3523;SDS011;1776;53.330;11.498;2023-03-24T07:31:26;7.87;;;3.90;;
3523;SDS011;1776;53.330;11.498;2023-03-24T07:33:52;3.50;;;2.90;;
3523;SDS011;1776;53.330;11.498;2023-03-24T07:36:17;4.17;;;3.57;;
3523;SDS011;1776;53.330;11.498;2023-03-24T07:38:42;4.37;;;3.93;;
3523;SDS011;1776;53.330;11.498;2023-03-24T07:41:08;5.10;;;3.60;;
3523;SDS011;1776;53.330;11.498;2023-03-24T07:43:33;4.63;;;3.80;;
3523;SDS011;1776;53.330;11.498;2023-03-24T07:45:59;4.87;;;4.17;;
3523;SDS011;1776;53.330;11.498;2023-03-24T07:48:24;4.30;;;3.80;;
3523;SDS011;1776;53.330;11.498;2023-03-24T07:50:51;5.90;;;4.20;;
3523;SDS011;1776;53.330;11.498;2023-03-24T07:53:17;4.23;;;3.83;;
3523;SDS011;1776;53.330;11.498;2023-03-24T07:55:43;5.23;;;3.87;;
3523;SDS011;1776;53.330;11.498;2023-03-24T07:58:09;5.27;;;4.20;;
3523;SDS011;1776;53.330;11.498;2023-03-24T08:00:35;4.20;;;3.80;;
3523;SDS011;1776;53.330;11.498;2023-03-24T08:03:01;4.27;;;3.87;;
3523;SDS011;1776;53.330;11.498;2023-03-24T08:05:27;4.67;;;4.10;;
3523;SDS011;1776;53.330;11.498;2023-03-24T08:07:54;5.63;;;4.03;;
3523;SDS011;1776;53.330;11.498;2023-03-24T08:10:26;7.37;;;4.30;;
3523;SDS011;1776;53.330;11.498;2023-03-24T08:12:53;4.73;;;4.20;;
3523;SDS011;1776;53.330;11.498;2023-03-24T08:15:19;4.73;;;4.33;;
3523;SDS011;1776;53.330;11.498;2023-03-24T08:17:46;4.57;;;3.87;;
3523;SDS011;1776;53.330;11.498;2023-03-24T08:20:13;8.43;;;4.17;;
3523;SDS011;1776;53.330;11.498;2023-03-24T08:22:39;5.63;;;4.30;;
3523;SDS011;1776;53.330;11.498;2023-03-24T08:25:06;5.37;;;4.03;;
3523;SDS011;1776;53.330;11.498;2023-03-24T08:27:33;4.90;;;3.90;;
3523;SDS011;1776;53.330;11.498;2023-03-24T08:29:58;5.37;;;4.13;;
3523;SDS011;1776;53.330;11.498;2023-03-24T08:32:23;5.33;;;4.00;;
3523;SDS011;1776;53.330;11.498;2023-03-24T08:34:48;5.07;;;4.30;;
3523;SDS011;1776;53.330;11.498;2023-03-24T08:37:14;7.67;;;4.40;;
3523;SDS011;1776;53.330;11.498;2023-03-24T08:39:39;3.20;;;2.90;;
3523;SDS011;1776;53.330;11.498;2023-03-24T08:42:04;2.80;;;2.30;;
3523;SDS011;1776;53.330;11.498;2023-03-24T08:44:30;1.63;;;1.53;;
3523;SDS011;1776;53.330;11.498;2023-03-24T08:46:55;3.00;;;1.40;;
3523;SDS011;1776;53.330;11.498;2023-03-24T08:49:21;2.33;;;1.67;;
3523;SDS011;1776;53.330;11.498;2023-03-24T08:51:46;3.10;;;2.10;;
3523;SDS011;1776;53.330;11.498;2023-03-24T08:54:11;2.10;;;1.70;;
3523;SDS011;1776;53.330;11.498;2023-03-24T08:56:37;1.87;;;1.63;;
3523;SDS011;1776;53.330;11.498;2023-03-24T08:59:03;2.07;;;1.70;;
3523;SDS011;1776;53.330;11.498;2023-03-24T09:01:29;1.53;;;1.43;;
3523;SDS011;1776;53.330;11.498;2023-03-24T09:03:55;2.90;;;2.10;;
3523;SDS011;1776;53.330;11.498;2023-03-24T09:06:22;2.00;;;1.80;;
3523;SDS011;1776;53.330;11.498;2023-03-24T09:08:47;2.00;;;1.80;;
3523;SDS011;1776;53.330;11.498;2023-03-24T09:11:14;1.70;;;1.60;;
3523;SDS011;1776;53.330;11.498;2023-03-24T09:13:42;2.17;;;1.30;;
3523;SDS011;1776;53.330;11.498;2023-03-24T09:16:07;3.33;;;1.90;;
3523;SDS011;1776;53.330;11.498;2023-03-24T09:18:32;4.30;;;1.27;;
3523;SDS011;1776;53.330;11.498;2023-03-24T09:20:58;2.13;;;1.80;;
3523;SDS011;1776;53.330;11.498;2023-03-24T09:23:23;2.33;;;1.43;;
3523;SDS011;1776;53.330;11.498;2023-03-24T09:25:49;1.53;;;1.13;;
3523;SDS011;1776;53.330;11.498;2023-03-24T09:28:15;1.67;;;1.30;;
3523;SDS011;1776;53.330;11.498;2023-03-24T09:30:41;1.40;;;1.03;;
3523;SDS011;1776;53.330;11.498;2023-03-24T09:33:07;1.57;;;1.10;;
3523;SDS011;1776;53.330;11.498;2023-03-24T09:35:32;3.23;;;1.57;;
3523;SDS011;1776;53.330;11.498;2023-03-24T09:37:58;1.50;;;1.40;;
3523;SDS011;1776;53.330;11.498;2023-03-24T09:43:08;1.87;;;1.17;;
3523;SDS011;1776;53.330;11.498;2023-03-24T09:45:50;2.23;;;1.40;;
3523;SDS011;1776;53.330;11.498;2023-03-24T09:48:32;2.53;;;1.23;;
3523;SDS011;1776;53.330;11.498;2023-03-24T09:51:08;2.20;;;1.10;;
3523;SDS011;1776;53.330;11.498;2023-03-24T09:53:36;2.53;;;0.90;;
3523;SDS011;1776;53.330;11.498;2023-03-24T09:56:21;2.47;;;0.83;;
3523;SDS011;1776;53.330;11.498;2023-03-24T09:58:48;4.40;;;1.30;;
3523;SDS011;1776;53.330;11.498;2023-03-24T10:01:22;5.13;;;1.30;;
3523;SDS011;1776;53.330;11.498;2023-03-24T10:03:47;3.00;;;0.90;;
3523;SDS011;1776;53.330;11.498;2023-03-24T10:06:18;3.13;;;1.13;;
3523;SDS011;1776;53.330;11.498;2023-03-24T10:08:53;3.60;;;1.20;;
3523;SDS011;1776;53.330;11.498;2023-03-24T10:14:52;2.40;;;0.90;;
3523;SDS011;1776;53.330;11.498;2023-03-24T10:20:09;3.60;;;1.93;;
3523;SDS011;1776;53.330;11.498;2023-03-24T10:22:52;3.97;;;1.30;;
3523;SDS011;1776;53.330;11.498;2023-03-24T10:28:52;5.57;;;1.53;;
3523;SDS011;1776;53.330;11.498;2023-03-24T10:31:33;4.40;;;1.43;;
3523;SDS011;1776;53.330;11.498;2023-03-24T10:34:01;3.90;;;1.13;;
3523;SDS011;1776;53.330;11.498;2023-03-24T10:36:26;2.90;;;1.17;;
3523;SDS011;1776;53.330;11.498;2023-03-24T10:38:53;2.20;;;1.07;;
3523;SDS011;1776;53.330;11.498;2023-03-24T10:41:22;2.20;;;1.10;;
3523;SDS011;1776;53.330;11.498;2023-03-24T10:43:51;6.60;;;1.20;;
3523;SDS011;1776;53.330;11.498;2023-03-24T10:46:20;6.10;;;1.23;;
3523;SDS011;1776;53.330;11.498;2023-03-24T10:48:49;3.97;;;1.20;;
3523;SDS011;1776;53.330;11.498;2023-03-24T10:51:18;2.77;;;1.30;;
3523;SDS011;1776;53.330;11.498;2023-03-24T10:53:46;7.60;;;1.80;;
3523;SDS011;1776;53.330;11.498;2023-03-24T10:57:00;1.40;;;0.80;;
3523;SDS011;1776;53.330;11.498;2023-03-24T10:59:03;4.23;;;1.30;;
3523;SDS011;1776;53.330;11.498;2023-03-24T11:01:42;3.23;;;1.23;;
3523;SDS011;1776;53.330;11.498;2023-03-24T11:04:08;1.63;;;1.10;;
3523;SDS011;1776;53.330;11.498;2023-03-24T11:06:38;3.27;;;1.00;;
3523;SDS011;1776;53.330;11.498;2023-03-24T11:09:21;6.20;;;1.60;;
3523;SDS011;1776;53.330;11.498;2023-03-24T11:11:47;6.17;;;1.47;;
3523;SDS011;1776;53.330;11.498;2023-03-24T11:14:25;8.70;;;1.50;;
3523;SDS011;1776;53.330;11.498;2023-03-24T11:16:52;4.10;;;1.37;;
3523;SDS011;1776;53.330;11.498;2023-03-24T11:19:33;3.50;;;1.20;;
3523;SDS011;1776;53.330;11.498;2023-03-24T11:22:01;3.97;;;1.67;;
3523;SDS011;1776;53.330;11.498;2023-03-24T11:24:29;2.70;;;1.80;;
3523;SDS011;1776;53.330;11.498;2023-03-24T11:27:02;5.07;;;1.40;;
3523;SDS011;1776;53.330;11.498;2023-03-24T11:29:31;2.27;;;1.20;;
3523;SDS011;1776;53.330;11.498;2023-03-24T11:32:02;4.37;;;1.00;;
3523;SDS011;1776;53.330;11.498;2023-03-24T11:34:35;5.40;;;1.27;;
3523;SDS011;1776;53.330;11.498;2023-03-24T11:39:48;4.23;;;1.10;;
3523;SDS011;1776;53.330;11.498;2023-03-24T11:42:53;2.40;;;1.20;;
3523;SDS011;1776;53.330;11.498;2023-03-24T11:45:24;5.97;;;1.40;;
3523;SDS011;1776;53.330;11.498;2023-03-24T11:47:53;6.50;;;1.93;;
3523;SDS011;1776;53.330;11.498;2023-03-24T11:50:28;5.43;;;1.37;;
3523;SDS011;1776;53.330;11.498;2023-03-24T12:01:10;5.23;;;1.33;;
3523;SDS011;1776;53.330;11.498;2023-03-24T12:03:54;2.50;;;0.97;;
3523;SDS011;1776;53.330;11.498;2023-03-24T12:09:11;4.37;;;1.23;;
3523;SDS011;1776;53.330;11.498;2023-03-24T12:14:13;4.57;;;1.40;;
3523;SDS011;1776;53.330;11.498;2023-03-24T12:17:05;5.50;;;1.47;;
3523;SDS011;1776;53.330;11.498;2023-03-24T12:25:17;3.37;;;1.43;;
3523;SDS011;1776;53.330;11.498;2023-03-24T12:27:58;2.90;;;1.50;;
3523;SDS011;1776;53.330;11.498;2023-03-24T12:33:07;7.23;;;2.20;;
3523;SDS011;1776;53.330;11.498;2023-03-24T12:38:49;4.43;;;1.93;;
3523;SDS011;1776;53.330;11.498;2023-03-24T12:51:46;7.40;;;2.43;;
3523;SDS011;1776;53.330;11.498;2023-03-24T12:57:11;7.97;;;1.53;;
3523;SDS011;1776;53.330;11.498;2023-03-24T12:59:40;7.13;;;1.90;;
3523;SDS011;1776;53.330;11.498;2023-03-24T13:05:13;4.57;;;1.53;;
3523;SDS011;1776;53.330;11.498;2023-03-24T13:07:43;4.23;;;1.63;;
3523;SDS011;1776;53.330;11.498;2023-03-24T13:10:12;2.40;;;1.10;;
3523;SDS011;1776;53.330;11.498;2023-03-24T13:12:40;5.57;;;1.47;;
3523;SDS011;1776;53.330;11.498;2023-03-24T13:15:16;8.83;;;1.77;;
3523;SDS011;1776;53.330;11.498;2023-03-24T13:17:58;3.07;;;1.00;;
3523;SDS011;1776;53.330;11.498;2023-03-24T13:20:44;10.10;;;1.80;;
3523;SDS011;1776;53.330;11.498;2023-03-24T13:29:15;4.13;;;1.93;;
3523;SDS011;1776;53.330;11.498;2023-03-24T13:31:51;5.03;;;1.30;;
3523;SDS011;1776;53.330;11.498;2023-03-24T13:34:25;9.03;;;1.50;;
3523;SDS011;1776;53.330;11.498;2023-03-24T13:37:04;6.30;;;2.40;;
3523;SDS011;1776;53.330;11.498;2023-03-24T13:39:35;3.73;;;1.57;;
3523;SDS011;1776;53.330;11.498;2023-03-24T13:42:02;7.37;;;1.90;;
3523;SDS011;1776;53.330;11.498;2023-03-24T13:44:40;5.77;;;1.50;;
3523;SDS011;1776;53.330;11.498;2023-03-24T13:47:16;2.60;;;1.00;;
3523;SDS011;1776;53.330;11.498;2023-03-24T13:50:03;9.47;;;1.90;;
3523;SDS011;1776;53.330;11.498;2023-03-24T13:52:42;3.23;;;1.20;;
3523;SDS011;1776;53.330;11.498;2023-03-24T13:55:21;4.60;;;1.63;;
3523;SDS011;1776;53.330;11.498;2023-03-24T13:57:55;4.77;;;1.80;;
3523;SDS011;1776;53.330;11.498;2023-03-24T14:00:23;6.83;;;1.80;;
3523;SDS011;1776;53.330;11.498;2023-03-24T14:02:54;6.20;;;1.80;;
3523;SDS011;1776;53.330;11.498;2023-03-24T14:08:32;6.40;;;2.23;;
3523;SDS011;1776;53.330;11.498;2023-03-24T14:13:55;6.77;;;2.13;;
3523;SDS011;1776;53.330;11.498;2023-03-24T14:19:23;12.13;;;2.27;;
3523;SDS011;1776;53.330;11.498;2023-03-24T14:21:57;6.47;;;1.70;;
3523;SDS011;1776;53.330;11.498;2023-03-24T14:24:28;6.87;;;1.67;;
3523;SDS011;1776;53.330;11.498;2023-03-24T14:26:56;5.57;;;1.77;;
3523;SDS011;1776;53.330;11.498;2023-03-24T14:29:32;6.23;;;2.83;;
3523;SDS011;1776;53.330;11.498;2023-03-24T14:32:14;2.83;;;1.40;;
3523;SDS011;1776;53.330;11.498;2023-03-24T14:34:48;7.93;;;1.83;;
3523;SDS011;1776;53.330;11.498;2023-03-24T14:37:15;8.03;;;2.30;;
3523;SDS011;1776;53.330;11.498;2023-03-24T14:39:42;4.83;;;2.13;;
3523;SDS011;1776;53.330;11.498;2023-03-24T14:42:51;5.13;;;2.00;;
3523;SDS011;1776;53.330;11.498;2023-03-24T14:48:14;9.03;;;2.30;;
3523;SDS011;1776;53.330;11.498;2023-03-24T14:50:47;8.67;;;1.50;;
3523;SDS011;1776;53.330;11.498;2023-03-24T14:53:16;6.90;;;2.50;;
3523;SDS011;1776;53.330;11.498;2023-03-24T14:55:44;6.00;;;2.27;;
3523;SDS011;1776;53.330;11.498;2023-03-24T14:58:44;3.60;;;1.47;;
3523;SDS011;1776;53.330;11.498;2023-03-24T15:01:05;7.47;;;2.00;;
3523;SDS011;1776;53.330;11.498;2023-03-24T15:06:18;9.07;;;1.60;;
3523;SDS011;1776;53.330;11.498;2023-03-24T15:08:51;8.30;;;2.90;;
3523;SDS011;1776;53.330;11.498;2023-03-24T15:11:19;10.47;;;2.30;;
3523;SDS011;1776;53.330;11.498;2023-03-24T15:13:48;5.97;;;1.70;;
3523;SDS011;1776;53.330;11.498;2023-03-24T15:16:20;5.50;;;1.90;;
3523;SDS011;1776;53.330;11.498;2023-03-24T15:21:33;8.90;;;2.23;;
3523;SDS011;1776;53.330;11.498;2023-03-24T15:24:22;6.10;;;2.43;;
3523;SDS011;1776;53.330;11.498;2023-03-24T15:29:30;5.07;;;3.10;;
3523;SDS011;1776;53.330;11.498;2023-03-24T15:31:56;5.77;;;2.23;;
3523;SDS011;1776;53.330;11.498;2023-03-24T15:34:40;4.50;;;2.10;;
3523;SDS011;1776;53.330;11.498;2023-03-24T15:37:23;5.60;;;1.80;;
3523;SDS011;1776;53.330;11.498;2023-03-24T15:39:55;8.13;;;2.20;;
3523;SDS011;1776;53.330;11.498;2023-03-24T15:42:21;6.37;;;3.10;;
3523;SDS011;1776;53.330;11.498;2023-03-24T15:44:47;6.80;;;2.17;;
3523;SDS011;1776;53.330;11.498;2023-03-24T15:47:19;4.93;;;2.40;;
3523;SDS011;1776;53.330;11.498;2023-03-24T15:49:56;4.50;;;1.93;;
3523;SDS011;1776;53.330;11.498;2023-03-24T15:52:30;4.10;;;2.00;;
3523;SDS011;1776;53.330;11.498;2023-03-24T15:57:55;7.50;;;2.27;;
3523;SDS011;1776;53.330;11.498;2023-03-24T16:00:23;2.30;;;1.87;;
3523;SDS011;1776;53.330;11.498;2023-03-24T16:03:02;8.17;;;2.80;;
3523;SDS011;1776;53.330;11.498;2023-03-24T16:05:31;3.17;;;1.90;;
3523;SDS011;1776;53.330;11.498;2023-03-24T16:07:59;9.23;;;1.83;;
3523;SDS011;1776;53.330;11.498;2023-03-24T16:10:39;9.80;;;2.43;;
3523;SDS011;1776;53.330;11.498;2023-03-24T16:13:18;5.53;;;1.97;;
3523;SDS011;1776;53.330;11.498;2023-03-24T16:15:47;9.20;;;1.87;;
3523;SDS011;1776;53.330;11.498;2023-03-24T16:18:14;4.97;;;1.77;;
3523;SDS011;1776;53.330;11.498;2023-03-24T16:20:45;6.03;;;2.50;;
3523;SDS011;1776;53.330;11.498;2023-03-24T16:23:11;3.30;;;1.83;;
3523;SDS011;1776;53.330;11.498;2023-03-24T16:25:36;4.60;;;2.10;;
3523;SDS011;1776;53.330;11.498;2023-03-24T16:28:02;7.17;;;2.13;;
3523;SDS011;1776;53.330;11.498;2023-03-24T16:30:28;3.87;;;2.00;;
3523;SDS011;1776;53.330;11.498;2023-03-24T16:33:01;5.87;;;2.20;;
3523;SDS011;1776;53.330;11.498;2023-03-24T16:35:27;5.33;;;2.10;;
3523;SDS011;1776;53.330;11.498;2023-03-24T16:37:52;7.47;;;3.33;;
3523;SDS011;1776;53.330;11.498;2023-03-24T16:40:35;4.73;;;1.67;;
3523;SDS011;1776;53.330;11.498;2023-03-24T16:43:03;8.40;;;2.03;;
3523;SDS011;1776;53.330;11.498;2023-03-24T16:45:30;4.43;;;2.60;;
3523;SDS011;1776;53.330;11.498;2023-03-24T16:47:55;5.50;;;2.10;;
3523;SDS011;1776;53.330;11.498;2023-03-24T16:50:23;6.77;;;2.00;;
3523;SDS011;1776;53.330;11.498;2023-03-24T16:52:52;4.83;;;2.50;;
3523;SDS011;1776;53.330;11.498;2023-03-24T16:55:17;5.10;;;2.33;;
3523;SDS011;1776;53.330;11.498;2023-03-24T16:57:42;6.40;;;2.57;;
3523;SDS011;1776;53.330;11.498;2023-03-24T17:00:08;4.77;;;2.10;;
3523;SDS011;1776;53.330;11.498;2023-03-24T17:02:37;3.07;;;2.20;;
3523;SDS011;1776;53.330;11.498;2023-03-24T17:05:16;6.63;;;2.60;;
3523;SDS011;1776;53.330;11.498;2023-03-24T17:07:48;3.40;;;2.03;;
3523;SDS011;1776;53.330;11.498;2023-03-24T17:10:14;3.80;;;2.93;;
3523;SDS011;1776;53.330;11.498;2023-03-24T17:12:39;2.87;;;1.90;;
3523;SDS011;1776;53.330;11.498;2023-03-24T17:15:06;6.57;;;1.80;;
3523;SDS011;1776;53.330;11.498;2023-03-24T17:17:38;6.30;;;1.90;;
3523;SDS011;1776;53.330;11.498;2023-03-24T17:20:03;5.27;;;2.33;;
3523;SDS011;1776;53.330;11.498;2023-03-24T17:22:29;6.07;;;2.17;;